Time;durP1;ratioP1;P1;durP2;ratioP2;P2;SDS_P1;SDS_P2;PMS_P1;PMS_P2;Temp;Humidity;BMP_temperature;BMP_pressure;BME280_temperature;BME280_humidity;BME280_pressure;Samples;Min_cycle;Max_cycle;Signal;HPM_P1;HPM_P2
2021/05/22 00:04:31;;;;;;;5.53;2.20;;;10.90;99.90;;;;;;10464485;28;20048;-61
2021/05/22 00:09:33;;;;;;;7.57;2.00;;;10.80;99.90;;;;;;10463895;28;20051;-59
2021/05/22 00:14:35;;;;;;;5.55;1.90;;;10.90;99.90;;;;;;10479063;28;20048;-60
2021/05/22 00:19:37;;;;;;;3.95;1.45;;;10.90;99.90;;;;;;10463735;28;20041;-58
2021/05/22 00:24:39;;;;;;;10.02;2.35;;;10.80;99.90;;;;;;10461849;28;20045;-60
2021/05/22 00:29:41;;;;;;;7.75;2.00;;;10.90;99.90;;;;;;10462990;28;20449;-61
2021/05/22 00:34:43;;;;;;;5.60;2.08;;;10.90;99.90;;;;;;10463104;28;20053;-60
2021/05/22 00:39:45;;;;;;;6.60;1.88;;;10.90;99.90;;;;;;10462692;28;20068;-60
2021/05/22 00:45:15;;;;;;;6.53;2.15;;;10.80;99.90;;;;;;10462396;28;20052;-59
2021/05/22 00:50:23;;;;;;;8.80;1.75;;;10.80;99.90;;;;;;10462141;28;20044;-60
2021/05/22 00:55:26;;;;;;;6.90;1.60;;;10.80;99.90;;;;;;10461958;28;20049;-60
2021/05/22 01:00:50;;;;;;;4.78;1.42;;;10.80;99.90;;;;;;10461456;28;20392;-60
2021/05/22 01:06:01;;;;;;;9.05;1.88;;;10.80;99.90;;;;;;10461785;28;20045;-60
2021/05/22 01:11:14;;;;;;;5.43;1.70;;;10.80;99.90;;;;;;10462088;28;20041;-59
2021/05/22 01:16:19;;;;;;;6.40;2.10;;;10.70;99.90;;;;;;10476667;28;20279;-60
2021/05/22 01:21:22;;;;;;;9.82;1.67;;;10.70;99.90;;;;;;10476779;28;20045;-59
2021/05/22 01:26:42;;;;;;;7.47;1.63;;;10.80;99.90;;;;;;10460688;28;20485;-59
2021/05/22 01:31:44;;;;;;;10.25;1.85;;;10.70;99.90;;;;;;10460748;28;20397;-58
2021/05/22 01:36:50;;;;;;;6.35;1.83;;;10.80;99.90;;;;;;10458828;28;20053;-60
2021/05/22 01:41:52;;;;;;;4.43;1.15;;;10.90;99.90;;;;;;10460265;28;20048;-62
2021/05/22 01:46:54;;;;;;;4.20;1.60;;;10.90;99.90;;;;;;10460314;28;20067;-59
2021/05/22 01:51:57;;;;;;;7.47;1.63;;;10.80;99.90;;;;;;10458653;28;20057;-61
2021/05/22 01:56:59;;;;;;;8.70;1.70;;;10.80;99.90;;;;;;10459524;28;20120;-60
2021/05/22 02:02:02;;;;;;;4.72;1.55;;;10.70;99.90;;;;;;10459374;28;20041;-60
2021/05/22 02:07:04;;;;;;;5.90;1.63;;;10.80;99.90;;;;;;10459075;28;20049;-59
2021/05/22 02:12:09;;;;;;;5.18;1.23;;;10.90;99.90;;;;;;10456975;28;20048;-60
2021/05/22 02:17:13;;;;;;;2.60;1.10;;;10.90;99.90;;;;;;10458703;28;20041;-60
2021/05/22 02:22:23;;;;;;;5.90;1.70;;;10.70;99.90;;;;;;10458639;28;20045;-60
2021/05/22 02:27:25;;;;;;;6.55;1.25;;;10.80;99.90;;;;;;10457153;28;20049;-60
2021/05/22 02:32:28;;;;;;;3.10;1.23;;;10.90;99.90;;;;;;10474014;28;20045;-61
2021/05/22 02:37:33;;;;;;;3.88;1.58;;;10.80;99.90;;;;;;10457822;28;20052;-59
2021/05/22 02:42:37;;;;;;;7.00;1.45;;;10.80;99.90;;;;;;10456766;28;20049;-59
2021/05/22 02:47:42;;;;;;;6.20;1.15;;;10.80;99.90;;;;;;10456815;28;20121;-59
2021/05/22 02:52:46;;;;;;;6.63;1.23;;;10.90;99.90;;;;;;10457596;28;20057;-60
2021/05/22 02:57:50;;;;;;;5.20;1.35;;;10.90;99.90;;;;;;10456494;28;20041;-60
2021/05/22 03:02:53;;;;;;;2.97;1.15;;;10.90;99.90;;;;;;10457244;28;20048;-60
2021/05/22 03:07:55;;;;;;;6.35;1.52;;;10.90;99.90;;;;;;10456086;28;20251;-59
2021/05/22 03:12:57;;;;;;;9.40;1.88;;;10.90;99.90;;;;;;10456935;28;20401;-59
2021/05/22 03:17:59;;;;;;;5.00;1.42;;;10.80;99.90;;;;;;10457021;28;20163;-59
2021/05/22 03:23:01;;;;;;;2.00;1.33;;;10.80;99.90;;;;;;10456437;28;20056;-60
2021/05/22 03:28:03;;;;;;;6.95;1.77;;;10.80;99.90;;;;;;10456234;28;20055;-61
2021/05/22 03:33:05;;;;;;;7.03;1.58;;;10.80;99.90;;;;;;10456674;28;20053;-60
2021/05/22 03:38:07;;;;;;;5.20;2.08;;;10.70;99.90;;;;;;10456393;28;20369;-60
2021/05/22 03:43:09;;;;;;;3.75;1.05;;;10.80;99.90;;;;;;10456415;28;20120;-60
2021/05/22 03:48:11;;;;;;;7.10;2.28;;;10.80;99.90;;;;;;10456375;28;20049;-60
2021/05/22 03:53:13;;;;;;;3.17;1.48;;;10.80;99.90;;;;;;10456214;28;20123;-60
2021/05/22 03:58:15;;;;;;;3.53;1.30;;;10.80;99.90;;;;;;10455837;28;20536;-58
2021/05/22 04:03:17;;;;;;;3.78;1.40;;;10.80;99.90;;;;;;10455647;28;20041;-58
2021/05/22 04:08:19;;;;;;;4.85;1.40;;;10.90;99.90;;;;;;10455990;28;20041;-56
2021/05/22 04:13:21;;;;;;;2.78;1.35;;;10.80;99.90;;;;;;10455700;28;20045;-59
2021/05/22 04:18:23;;;;;;;5.72;1.50;;;10.80;99.90;;;;;;10455967;28;20055;-60
2021/05/22 04:23:25;;;;;;;5.60;1.50;;;10.80;99.90;;;;;;10455526;28;20056;-61
2021/05/22 04:28:27;;;;;;;4.35;1.60;;;10.80;99.90;;;;;;10455231;28;20392;-60
2021/05/22 04:33:29;;;;;;;5.95;1.70;;;10.90;99.90;;;;;;10458879;28;20051;-59
2021/05/22 04:38:31;;;;;;;6.88;1.20;;;10.80;99.90;;;;;;10462796;28;20060;-59
2021/05/22 04:43:33;;;;;;;5.93;1.73;;;10.80;99.90;;;;;;10462713;28;20044;-60
2021/05/22 04:48:35;;;;;;;6.03;1.77;;;10.90;99.90;;;;;;10462389;28;20495;-59
2021/05/22 04:53:36;;;;;;;5.30;1.42;;;10.90;99.90;;;;;;10462211;28;20045;-57
2021/05/22 04:58:39;;;;;;;6.07;1.85;;;10.80;99.90;;;;;;10461762;28;20057;-58
2021/05/22 05:03:41;;;;;;;8.90;1.70;;;10.80;99.90;;;;;;10461812;28;20041;-58
2021/05/22 05:08:43;;;;;;;5.80;1.73;;;10.80;99.90;;;;;;10461496;28;20044;-59
2021/05/22 05:13:45;;;;;;;11.07;1.60;;;10.80;99.90;;;;;;10460975;28;20404;-58
2021/05/22 05:18:47;;;;;;;6.47;1.55;;;10.80;99.90;;;;;;10461032;28;20048;-58
2021/05/22 05:23:49;;;;;;;9.57;1.67;;;10.70;99.90;;;;;;10460561;28;20047;-61
2021/05/22 05:28:51;;;;;;;7.22;1.75;;;10.80;99.90;;;;;;10460779;28;20128;-60
2021/05/22 05:33:53;;;;;;;8.23;2.15;;;10.80;99.90;;;;;;10460212;28;20413;-61
2021/05/22 05:38:55;;;;;;;6.97;2.80;;;10.80;99.90;;;;;;10460364;28;20053;-60
2021/05/22 05:43:57;;;;;;;4.03;1.48;;;10.80;99.90;;;;;;10459752;28;20044;-58
2021/05/22 05:48:59;;;;;;;10.75;2.65;;;10.70;99.90;;;;;;10458883;28;20363;-61
2021/05/22 05:54:01;;;;;;;7.55;1.85;;;10.70;99.90;;;;;;10459551;28;20066;-61
2021/05/22 05:59:03;;;;;;;6.88;1.67;;;10.70;99.90;;;;;;10459736;28;20049;-62
2021/05/22 06:04:05;;;;;;;5.95;1.63;;;10.60;99.90;;;;;;10459417;28;20037;-59
2021/05/22 06:09:07;;;;;;;7.50;2.55;;;10.70;99.90;;;;;;10459714;28;20037;-61
2021/05/22 06:14:15;;;;;;;6.03;2.13;;;10.80;99.90;;;;;;10458861;28;20061;-60
2021/05/22 06:19:17;;;;;;;9.38;2.55;;;10.80;99.90;;;;;;10458713;28;20045;-58
2021/05/22 06:24:19;;;;;;;6.60;1.70;;;10.70;99.90;;;;;;10458391;28;20045;-58
2021/05/22 06:29:21;;;;;;;5.22;2.22;;;10.80;99.90;;;;;;10458520;28;20120;-58
2021/05/22 06:34:23;;;;;;;7.95;2.70;;;10.70;99.90;;;;;;10458294;28;20123;-59
2021/05/22 06:39:25;;;;;;;8.38;2.38;;;10.70;99.90;;;;;;10458141;28;20053;-60
2021/05/22 06:44:34;;;;;;;9.52;3.25;;;10.80;99.90;;;;;;10457709;28;20045;-60
2021/05/22 06:49:36;;;;;;;6.32;2.33;;;10.80;99.90;;;;;;10457822;28;20044;-60
2021/05/22 06:54:40;;;;;;;4.05;1.90;;;10.80;99.90;;;;;;10457553;28;20045;-62
2021/05/22 06:59:43;;;;;;;3.88;2.05;;;10.80;99.90;;;;;;10457241;28;20495;-61
2021/05/22 07:04:45;;;;;;;7.85;2.28;;;10.70;99.90;;;;;;10457319;28;20124;-60
2021/05/22 07:09:46;;;;;;;5.00;1.60;;;10.70;99.90;;;;;;10457168;28;20082;-60
2021/05/22 07:14:48;;;;;;;7.97;2.65;;;10.70;99.90;;;;;;10456902;28;20524;-60
2021/05/22 07:19:50;;;;;;;10.93;2.50;;;10.80;99.90;;;;;;10457421;28;20055;-62
2021/05/22 07:24:53;;;;;;;5.35;1.98;;;10.70;99.90;;;;;;10456838;28;20041;-60
2021/05/22 07:29:55;;;;;;;5.25;2.90;;;10.80;99.90;;;;;;10456899;28;20055;-60
2021/05/22 07:34:57;;;;;;;8.50;2.80;;;10.80;99.90;;;;;;10456982;28;20051;-59
2021/05/22 07:39:59;;;;;;;8.25;2.53;;;10.80;99.90;;;;;;10455237;28;20048;-60
2021/05/22 07:45:03;;;;;;;3.80;1.60;;;10.80;99.90;;;;;;10456458;28;20047;-60
2021/05/22 07:50:06;;;;;;;3.60;2.05;;;10.90;99.90;;;;;;10456347;28;20068;-61
2021/05/22 07:55:12;;;;;;;5.85;2.40;;;10.90;99.90;;;;;;10455979;28;20496;-59
2021/05/22 08:00:14;;;;;;;5.35;2.97;;;10.80;99.90;;;;;;10456286;28;20041;-60
2021/05/22 08:05:17;;;;;;;3.47;1.85;;;10.90;99.90;;;;;;10456521;28;20045;-60
2021/05/22 08:10:18;;;;;;;8.77;2.30;;;10.90;99.90;;;;;;10462777;28;20049;-60
2021/05/22 08:15:20;;;;;;;6.70;2.80;;;10.90;99.90;;;;;;10463730;28;20124;-60
2021/05/22 08:20:23;;;;;;;5.25;2.60;;;10.90;99.90;;;;;;10464137;28;20045;-60
2021/05/22 08:25:25;;;;;;;4.32;2.28;;;11.00;99.90;;;;;;10463047;28;20043;-61
2021/05/22 08:30:27;;;;;;;6.55;2.58;;;10.90;99.90;;;;;;10463016;28;20476;-60
2021/05/22 08:35:30;;;;;;;6.72;3.20;;;10.90;99.90;;;;;;10462933;28;20059;-60
2021/05/22 08:40:32;;;;;;;8.15;3.15;;;11.00;99.90;;;;;;10478077;28;20385;-61
2021/05/22 08:45:34;;;;;;;6.60;2.90;;;10.90;99.90;;;;;;10462478;28;20048;-61
2021/05/22 08:50:36;;;;;;;6.22;2.80;;;11.00;99.90;;;;;;10462501;28;20053;-60
2021/05/22 08:55:38;;;;;;;4.78;2.58;;;10.90;99.90;;;;;;10462317;28;20120;-60
2021/05/22 09:00:41;;;;;;;6.25;2.10;;;11.00;99.90;;;;;;10462207;28;20052;-59
2021/05/22 09:05:44;;;;;;;12.15;2.83;;;10.90;99.90;;;;;;10461569;28;20043;-53
2021/05/22 09:10:49;;;;;;;5.13;2.83;;;11.00;99.90;;;;;;10461540;28;20519;-56
2021/05/22 09:16:09;;;;;;;13.82;2.47;;;10.90;99.90;;;;;;10461095;28;20485;-58
2021/05/22 09:21:13;;;;;;;9.18;3.00;;;11.00;99.90;;;;;;10460662;28;20037;-59
2021/05/22 09:26:17;;;;;;;4.00;2.65;;;11.10;99.90;;;;;;10460843;28;20044;-56
2021/05/22 09:31:23;;;;;;;12.77;3.35;;;11.10;99.90;;;;;;10461153;28;20076;-57
2021/05/22 09:36:25;;;;;;;12.45;2.65;;;11.20;99.90;;;;;;10461139;28;20128;-59
2021/05/22 09:41:35;;;;;;;6.60;2.42;;;11.10;99.90;;;;;;10459259;28;20045;-59
2021/05/22 09:46:44;;;;;;;5.20;2.58;;;11.20;99.90;;;;;;10460250;28;20048;-57
2021/05/22 09:51:57;;;;;;;3.08;2.22;;;11.20;99.90;;;;;;10459902;28;20051;-58
2021/05/22 09:56:58;;;;;;;4.18;2.55;;;11.30;99.90;;;;;;10459950;28;20067;-59
2021/05/22 10:02:01;;;;;;;2.60;2.10;;;11.20;99.90;;;;;;10450731;28;20040;-58
2021/05/22 10:07:03;;;;;;;5.25;2.25;;;11.30;99.90;;;;;;10458123;28;20524;-57
2021/05/22 10:12:15;;;;;;;7.22;2.60;;;11.40;99.90;;;;;;10456918;28;20049;-58
2021/05/22 10:17:17;;;;;;;7.00;2.20;;;11.40;99.90;;;;;;10448520;28;20068;-54
2021/05/22 10:22:20;;;;;;;7.10;2.38;;;11.40;99.90;;;;;;10456382;28;20358;-57
2021/05/22 10:27:23;;;;;;;5.40;2.33;;;11.60;99.90;;;;;;10457024;28;20048;-58
2021/05/22 10:32:31;;;;;;;4.00;2.00;;;11.60;99.90;;;;;;10444228;28;20041;-58
2021/05/22 10:37:50;;;;;;;6.35;2.53;;;11.60;99.90;;;;;;10456647;28;20056;-55
2021/05/22 10:42:57;;;;;;;2.83;2.25;;;11.60;99.90;;;;;;10457015;28;20120;-56
2021/05/22 10:48:02;;;;;;;6.20;1.88;;;11.80;99.90;;;;;;10455570;28;20358;-56
2021/05/22 10:53:33;;;;;;;2.42;2.05;;;11.70;99.90;;;;;;10438605;28;20099;-55
2021/05/22 10:59:00;;;;;;;5.53;3.08;;;11.70;99.90;;;;;;10455533;28;20045;-56
2021/05/22 11:09:25;;;;;;;3.33;3.03;;;11.90;99.90;;;;;;10454642;28;20127;-60
2021/05/22 11:14:35;;;;;;;5.47;3.03;;;11.80;99.90;;;;;;10452527;28;20053;-60
2021/05/22 11:19:57;;;;;;;3.95;2.40;;;11.80;99.90;;;;;;10453602;28;20053;-59
2021/05/22 11:25:09;;;;;;;3.60;3.00;;;12.00;99.90;;;;;;10455862;28;20048;-60
2021/05/22 11:30:20;;;;;;;4.85;2.80;;;11.90;99.90;;;;;;10456917;28;20128;-59
2021/05/22 11:35:29;;;;;;;3.40;2.88;;;11.90;99.90;;;;;;10456075;28;20048;-59
2021/05/22 11:40:40;;;;;;;3.70;2.67;;;11.90;99.90;;;;;;10457391;28;20131;-61
2021/05/22 11:45:54;;;;;;;3.97;3.57;;;11.80;99.90;;;;;;10464905;28;20139;-60
2021/05/22 11:51:25;;;;;;;4.18;3.65;;;11.80;99.90;;;;;;10464689;28;20432;-60
2021/05/22 11:56:33;;;;;;;4.45;4.05;;;11.80;99.90;;;;;;10464304;28;20064;-60
2021/05/22 12:01:42;;;;;;;4.88;4.40;;;11.70;99.90;;;;;;10464854;28;20124;-60
2021/05/22 12:06:47;;;;;;;5.00;4.53;;;11.80;99.90;;;;;;10464144;28;20069;-60
2021/05/22 12:12:07;;;;;;;5.38;4.85;;;11.90;99.90;;;;;;10464595;28;20128;-60
2021/05/22 12:17:12;;;;;;;5.18;4.78;;;11.90;99.90;;;;;;10463421;28;20120;-60
2021/05/22 12:22:17;;;;;;;5.10;4.60;;;12.10;99.90;;;;;;10463969;28;20051;-60
2021/05/22 12:27:19;;;;;;;6.22;5.57;;;12.30;99.90;;;;;;10463384;28;20384;-60
2021/05/22 12:32:22;;;;;;;6.72;6.13;;;12.50;99.90;;;;;;10462502;28;20052;-59
2021/05/22 12:37:25;;;;;;;6.78;5.78;;;12.50;99.90;;;;;;10462969;28;20049;-60
2021/05/22 12:42:31;;;;;;;7.97;7.20;;;12.40;99.90;;;;;;10463045;28;20057;-59
2021/05/22 12:47:38;;;;;;;5.85;5.03;;;12.10;99.90;;;;;;10461995;28;20124;-59
2021/05/22 12:52:56;;;;;;;6.72;6.13;;;11.90;99.90;;;;;;10461395;28;20051;-59
2021/05/22 12:58:02;;;;;;;7.38;5.78;;;11.80;99.90;;;;;;10462629;28;20041;-59
2021/05/22 13:03:05;;;;;;;6.75;5.82;;;11.90;99.90;;;;;;10462045;28;20045;-60
2021/05/22 13:08:10;;;;;;;7.95;5.78;;;11.90;99.90;;;;;;10462046;28;20048;-59
2021/05/22 13:13:18;;;;;;;8.90;6.63;;;11.90;99.90;;;;;;10461732;28;20162;-60
2021/05/22 13:18:23;;;;;;;12.75;6.75;;;12.00;99.90;;;;;;10461759;28;20037;-60
2021/05/22 13:23:32;;;;;;;11.80;6.68;;;11.80;99.90;;;;;;10461333;28;20037;-60
2021/05/22 13:28:39;;;;;;;14.15;9.38;;;12.00;99.90;;;;;;10461563;28;20041;-60
2021/05/22 13:33:50;;;;;;;10.82;7.03;;;11.90;99.90;;;;;;10460606;28;20041;-60
2021/05/22 13:38:54;;;;;;;9.38;8.57;;;11.80;99.90;;;;;;10460637;28;20087;-60
2021/05/22 13:43:56;;;;;;;8.02;6.50;;;12.00;99.90;;;;;;10459393;28;20072;-60
2021/05/22 13:48:58;;;;;;;9.85;7.72;;;11.80;99.90;;;;;;10460258;28;20052;-60
2021/05/22 13:54:01;;;;;;;9.88;6.13;;;11.90;99.90;;;;;;10460065;28;20393;-60
2021/05/22 13:59:03;;;;;;;15.73;6.22;;;11.70;99.90;;;;;;10459913;28;20041;-60
2021/05/22 14:04:05;;;;;;;8.45;7.63;;;11.80;99.90;;;;;;10459307;28;20037;-60
2021/05/22 14:09:08;;;;;;;9.05;6.72;;;11.70;99.90;;;;;;10459605;28;20049;-60
2021/05/22 14:14:10;;;;;;;10.00;6.45;;;11.70;99.90;;;;;;10459807;28;20044;-61
2021/05/22 14:19:12;;;;;;;8.73;7.93;;;11.80;99.90;;;;;;10459592;28;20079;-60
2021/05/22 14:24:14;;;;;;;9.23;8.20;;;11.80;99.90;;;;;;10458591;28;20045;-60
2021/05/22 14:29:16;;;;;;;16.48;10.18;;;11.80;99.90;;;;;;10459061;28;20041;-60
2021/05/22 14:34:18;;;;;;;12.05;8.15;;;11.70;99.90;;;;;;10458282;28;20053;-59
2021/05/22 14:39:20;;;;;;;12.32;10.25;;;11.60;99.90;;;;;;10458181;28;20374;-59
2021/05/22 14:44:22;;;;;;;10.50;9.50;;;11.60;99.90;;;;;;10458174;28;20048;-61
2021/05/22 14:49:24;;;;;;;11.50;8.80;;;11.50;99.90;;;;;;10457883;28;20053;-60
2021/05/22 14:54:26;;;;;;;8.93;8.10;;;11.50;99.90;;;;;;10457799;28;20055;-60
2021/05/22 14:59:29;;;;;;;9.82;8.68;;;11.70;99.90;;;;;;10457709;28;20127;-60
2021/05/22 15:04:31;;;;;;;11.45;9.50;;;11.90;99.90;;;;;;10457133;28;20482;-61
2021/05/22 15:09:33;;;;;;;10.60;9.25;;;12.00;99.90;;;;;;10457475;28;20048;-59
2021/05/22 15:14:37;;;;;;;9.65;7.60;;;12.10;99.90;;;;;;10456647;28;20059;-60
2021/05/22 15:19:40;;;;;;;12.75;7.93;;;12.00;99.90;;;;;;10456612;28;20385;-60
2021/05/22 15:24:42;;;;;;;11.75;8.60;;;12.00;99.90;;;;;;10456441;28;20044;-60
2021/05/22 15:29:44;;;;;;;7.22;6.38;;;12.00;99.90;;;;;;10457343;28;20075;-60
2021/05/22 15:34:46;;;;;;;9.40;7.70;;;12.10;99.90;;;;;;10456661;28;20051;-60
2021/05/22 15:39:48;;;;;;;7.35;6.63;;;12.40;99.90;;;;;;10457136;28;20044;-61
2021/05/22 15:44:50;;;;;;;8.85;7.97;;;12.50;99.90;;;;;;10456333;28;20045;-60
2021/05/22 16:00:11;;;;;;;4.47;3.38;;;12.90;99.90;;;;;;10456225;28;20041;-60
2021/05/22 16:05:40;;;;;;;4.88;3.10;;;12.70;99.90;;;;;;10455785;28;20041;-60
2021/05/22 16:10:44;;;;;;;5.78;3.08;;;12.50;99.90;;;;;;10455958;28;20049;-60
2021/05/22 16:15:46;;;;;;;2.40;2.20;;;12.50;99.90;;;;;;10454609;28;20045;-60
2021/05/22 16:20:48;;;;;;;4.40;2.92;;;12.70;99.90;;;;;;10455368;28;20053;-60
2021/05/22 16:25:50;;;;;;;3.22;1.60;;;13.20;99.90;;;;;;10455724;28;20048;-61
2021/05/22 16:30:52;;;;;;;2.42;1.80;;;13.30;99.90;;;;;;10461459;28;20392;-61
2021/05/22 16:35:54;;;;;;;2.05;1.90;;;13.10;99.90;;;;;;10463317;28;20151;-60
2021/05/22 16:40:56;;;;;;;2.92;2.58;;;13.10;99.90;;;;;;10462870;28;20037;-60
2021/05/22 16:45:58;;;;;;;3.63;1.85;;;13.10;99.90;;;;;;10462545;28;20389;-60
2021/05/22 16:51:00;;;;;;;3.38;1.92;;;12.90;99.90;;;;;;10463169;28;20068;-61
2021/05/22 16:56:03;;;;;;;2.97;2.38;;;12.70;99.90;;;;;;10462386;28;20041;-58
2021/05/22 17:01:05;;;;;;;8.68;2.97;;;12.70;99.90;;;;;;10462025;28;20127;-59
2021/05/22 17:06:07;;;;;;;2.58;2.38;;;12.60;99.90;;;;;;10461889;28;20041;-60
2021/05/22 17:11:08;;;;;;;4.82;3.67;;;12.50;99.90;;;;;;10460709;28;20392;-60
2021/05/22 17:16:11;;;;;;;4.22;2.60;;;12.40;99.90;;;;;;10461389;28;20400;-60
2021/05/22 17:21:14;;;;;;;3.08;2.47;;;12.40;99.90;;;;;;10461421;28;20040;-59
2021/05/22 17:26:17;;;;;;;4.30;2.63;;;12.40;99.90;;;;;;10461003;28;20041;-60
2021/05/22 17:31:19;;;;;;;2.50;2.30;;;12.40;99.90;;;;;;10461030;28;20052;-60
2021/05/22 17:36:21;;;;;;;2.38;2.17;;;12.40;99.90;;;;;;10460553;28;20075;-59
2021/05/22 17:41:24;;;;;;;2.90;2.30;;;12.60;99.90;;;;;;10460039;28;20548;-61
2021/05/22 17:46:26;;;;;;;3.60;2.70;;;12.70;99.90;;;;;;10460239;28;20040;-60
2021/05/22 17:51:30;;;;;;;4.32;3.00;;;12.70;99.90;;;;;;10460196;28;20048;-59
2021/05/22 17:56:32;;;;;;;3.13;2.65;;;12.70;99.90;;;;;;10460031;28;20057;-60
2021/05/22 18:01:34;;;;;;;6.65;2.92;;;12.60;99.90;;;;;;10459609;28;20392;-60
2021/05/22 18:06:36;;;;;;;2.50;2.30;;;12.50;99.90;;;;;;10458312;28;20045;-59
2021/05/22 18:11:38;;;;;;;3.67;3.20;;;12.50;99.90;;;;;;10459510;28;20139;-60
2021/05/22 18:16:40;;;;;;;2.75;2.28;;;12.40;99.90;;;;;;10458294;28;20041;-59
2021/05/22 18:21:42;;;;;;;3.10;2.90;;;12.50;99.90;;;;;;10458972;28;20051;-60
2021/05/22 18:26:44;;;;;;;3.38;3.17;;;12.60;99.90;;;;;;10458697;28;20044;-59
2021/05/22 18:31:46;;;;;;;4.78;3.20;;;12.70;99.90;;;;;;10459381;28;20056;-59
2021/05/22 18:36:48;;;;;;;5.15;4.25;;;12.70;99.90;;;;;;10456922;28;20045;-60
2021/05/22 18:41:50;;;;;;;6.88;4.50;;;12.50;99.90;;;;;;10458096;28;20053;-59
2021/05/22 18:46:52;;;;;;;4.47;3.90;;;12.50;99.90;;;;;;10457957;28;20441;-60
2021/05/22 18:51:54;;;;;;;5.93;5.40;;;12.50;99.90;;;;;;10457007;28;20481;-59
2021/05/22 18:56:56;;;;;;;4.60;3.88;;;12.40;99.90;;;;;;10457754;28;20045;-59
2021/05/22 19:01:59;;;;;;;4.55;3.55;;;12.40;99.90;;;;;;10457748;28;20044;-60
2021/05/22 19:07:01;;;;;;;5.28;4.47;;;12.50;99.90;;;;;;10457113;28;20516;-59
2021/05/22 19:12:03;;;;;;;5.78;4.18;;;12.40;99.90;;;;;;10457273;28;20152;-59
2021/05/22 19:17:05;;;;;;;5.22;4.30;;;12.40;99.90;;;;;;10456899;28;20045;-60
2021/05/22 19:22:09;;;;;;;6.38;4.90;;;12.50;99.90;;;;;;10456824;28;20041;-59
2021/05/22 19:27:12;;;;;;;5.43;4.93;;;12.40;99.90;;;;;;10456815;28;20045;-59
2021/05/22 19:32:14;;;;;;;10.30;5.07;;;12.30;99.90;;;;;;10455416;28;20367;-59
2021/05/22 19:37:16;;;;;;;6.78;6.13;;;12.20;99.90;;;;;;10456238;28;20055;-60
2021/05/22 19:42:18;;;;;;;5.63;4.38;;;12.20;99.90;;;;;;10456309;28;20045;-60
2021/05/22 19:47:20;;;;;;;7.50;6.20;;;12.10;99.90;;;;;;10456437;28;20124;-60
2021/05/22 19:52:22;;;;;;;9.18;8.23;;;12.20;99.90;;;;;;10456241;28;20103;-61
2021/05/22 19:57:24;;;;;;;8.77;7.00;;;12.10;99.90;;;;;;10456282;28;20052;-60
2021/05/22 20:02:26;;;;;;;9.57;7.50;;;12.10;99.90;;;;;;10457323;28;20051;-60
2021/05/22 20:07:29;;;;;;;10.00;8.50;;;12.10;99.90;;;;;;10464476;28;20041;-60
2021/05/22 20:12:32;;;;;;;16.40;9.23;;;12.00;99.90;;;;;;10464159;28;20045;-60
2021/05/22 20:17:35;;;;;;;11.90;9.90;;;12.00;99.90;;;;;;10464330;28;20128;-59
2021/05/22 20:22:37;;;;;;;15.40;9.20;;;12.00;99.90;;;;;;10463578;28;20041;-60
2021/05/22 20:27:39;;;;;;;11.02;9.10;;;11.90;99.90;;;;;;10463839;28;20045;-60
2021/05/22 20:32:41;;;;;;;12.93;9.43;;;11.90;99.90;;;;;;10463189;28;20396;-60
2021/05/22 20:37:43;;;;;;;12.10;9.60;;;11.90;99.90;;;;;;10463076;28;20500;-60
2021/05/22 20:42:49;;;;;;;13.00;10.13;;;11.80;99.90;;;;;;10463277;28;20037;-60
2021/05/22 20:47:53;;;;;;;15.63;11.00;;;11.80;99.90;;;;;;10463579;28;20045;-60
2021/05/22 20:52:56;;;;;;;17.90;10.90;;;11.70;99.90;;;;;;10462406;28;20469;-60
2021/05/22 20:57:58;;;;;;;15.95;11.70;;;11.70;99.90;;;;;;10477568;28;20500;-60
2021/05/22 21:03:00;;;;;;;19.38;11.95;;;11.70;99.90;;;;;;10462099;28;20045;-60
2021/05/22 21:08:03;;;;;;;16.98;11.23;;;11.60;99.90;;;;;;10461982;28;20041;-60
2021/05/22 21:13:05;;;;;;;19.83;12.82;;;11.60;99.90;;;;;;10461443;28;20099;-60
2021/05/22 21:18:28;;;;;;;27.05;16.08;;;11.60;99.90;;;;;;10462283;28;20095;-60
2021/05/22 21:23:31;;;;;;;19.20;13.80;;;11.60;99.90;;;;;;10461703;28;20037;-60
2021/05/22 21:28:34;;;;;;;14.13;12.57;;;11.50;99.90;;;;;;10461047;28;20051;-60
2021/05/22 21:33:40;;;;;;;16.95;12.77;;;11.50;99.90;;;;;;10461291;28;20049;-59
2021/05/22 21:38:42;;;;;;;14.18;11.93;;;11.40;99.90;;;;;;10461296;28;20060;-60
2021/05/22 21:43:44;;;;;;;16.08;12.13;;;11.30;99.90;;;;;;10460349;28;20045;-60
2021/05/22 21:48:46;;;;;;;19.15;14.65;;;11.30;99.90;;;;;;10460552;28;20049;-59
2021/05/22 21:53:48;;;;;;;17.40;13.27;;;11.30;99.90;;;;;;10460107;28;20493;-60
2021/05/22 21:58:50;;;;;;;22.75;14.48;;;11.30;99.90;;;;;;10460110;28;20041;-60
2021/05/22 22:03:55;;;;;;;16.17;13.52;;;11.30;99.90;;;;;;10460109;28;20041;-60
2021/05/22 22:08:57;;;;;;;13.57;11.00;;;11.20;99.90;;;;;;10459681;28;20040;-60
2021/05/22 22:13:59;;;;;;;17.80;11.85;;;11.10;99.90;;;;;;10459460;28;20079;-60
2021/05/22 22:19:01;;;;;;;19.98;13.18;;;11.10;99.90;;;;;;10459261;28;20455;-60
2021/05/22 22:24:10;;;;;;;16.60;12.77;;;11.10;99.90;;;;;;10459422;28;20102;-60
2021/05/22 22:29:12;;;;;;;24.23;14.65;;;11.00;99.90;;;;;;10474356;28;20079;-60
2021/05/22 22:34:14;;;;;;;18.05;13.30;;;11.00;99.90;;;;;;10458634;28;20051;-60
2021/05/22 22:39:16;;;;;;;17.55;13.60;;;11.00;99.90;;;;;;10458449;28;20047;-60
2021/05/22 22:44:18;;;;;;;24.95;16.50;;;11.00;99.90;;;;;;10457971;28;20041;-60
2021/05/22 22:49:20;;;;;;;26.00;15.50;;;11.00;99.90;;;;;;10458056;28;20082;-60
2021/05/22 22:54:22;;;;;;;18.15;13.13;;;10.90;99.90;;;;;;10457714;28;20378;-60
2021/05/22 22:59:25;;;;;;;21.27;15.18;;;10.90;99.90;;;;;;10458206;28;20049;-60
2021/05/22 23:04:27;;;;;;;17.67;15.10;;;10.90;99.90;;;;;;10457196;28;20366;-60
2021/05/22 23:09:30;;;;;;;35.50;19.92;;;10.80;99.90;;;;;;10457944;28;20052;-60
2021/05/22 23:14:33;;;;;;;21.30;16.17;;;10.80;99.90;;;;;;10457499;28;20048;-60
2021/05/22 23:19:35;;;;;;;23.25;16.38;;;10.80;99.90;;;;;;10457253;28;20081;-60
2021/05/22 23:24:37;;;;;;;24.77;16.75;;;10.70;99.90;;;;;;10456914;28;20041;-60
2021/05/22 23:29:39;;;;;;;21.98;15.65;;;10.80;99.90;;;;;;10456977;28;20059;-59
2021/05/22 23:34:43;;;;;;;28.33;20.08;;;10.70;99.90;;;;;;10457158;28;20059;-60
2021/05/22 23:39:45;;;;;;;22.75;16.33;;;10.60;99.90;;;;;;10456187;28;20052;-60
2021/05/22 23:44:47;;;;;;;18.45;14.65;;;10.70;99.90;;;;;;10456420;28;20049;-61
2021/05/22 23:49:49;;;;;;;29.00;19.85;;;10.70;99.90;;;;;;10456968;28;20087;-61
2021/05/22 23:54:51;;;;;;;33.53;20.92;;;10.70;99.90;;;;;;10456214;28;20396;-61
2021/05/22 23:59:53;;;;;;;28.95;19.73;;;10.80;99.90;;;;;;10455718;28;20045;-60
